Time;durP1;ratioP1;P1;durP2;ratioP2;P2;SDS_P1;SDS_P2;PMS_P1;PMS_P2;Temp;Humidity;BMP_temperature;BMP_pressure;BME280_temperature;BME280_humidity;BME280_pressure;Samples;Min_cycle;Max_cycle;Signal;HPM_P1;HPM_P2
2023/06/18 00:01:07;;;;;;;9.33;8.63;;;17.30;99.90;;;;;;4987065;28;20226;-74
2023/06/18 00:03:33;;;;;;;10.10;9.17;;;17.30;99.90;;;;;;4985982;28;20301;-74
2023/06/18 00:06:01;;;;;;;9.20;8.53;;;17.20;99.90;;;;;;4986805;28;20289;-74
2023/06/18 00:08:27;;;;;;;9.50;8.70;;;17.20;99.90;;;;;;4986817;28;20322;-74
2023/06/18 00:10:56;;;;;;;9.17;8.47;;;17.20;99.90;;;;;;4986656;28;20269;-75
2023/06/18 00:13:22;;;;;;;9.67;8.77;;;17.20;99.90;;;;;;4986752;28;20643;-76
2023/06/18 00:15:49;;;;;;;9.37;8.67;;;17.10;99.90;;;;;;4986914;28;20206;-74
2023/06/18 00:18:16;;;;;;;10.03;9.20;;;17.10;99.90;;;;;;4986510;28;20587;-74
2023/06/18 00:20:43;;;;;;;10.40;9.30;;;17.10;99.90;;;;;;4986582;28;20213;-75
2023/06/18 00:23:10;;;;;;;9.10;8.40;;;16.90;99.90;;;;;;4986088;28;20706;-75
2023/06/18 00:25:37;;;;;;;8.80;8.20;;;16.90;99.90;;;;;;4975758;28;20243;-74
2023/06/18 00:28:05;;;;;;;9.63;8.93;;;16.90;99.90;;;;;;4986266;28;20730;-75
2023/06/18 00:30:32;;;;;;;10.23;9.43;;;16.90;99.90;;;;;;4986484;28;20245;-75
2023/06/18 00:32:59;;;;;;;9.97;9.17;;;16.90;99.90;;;;;;4986358;28;20286;-75
2023/06/18 00:35:26;;;;;;;11.40;9.20;;;16.90;99.90;;;;;;4986709;28;20209;-75
2023/06/18 00:37:54;;;;;;;9.10;8.40;;;16.90;99.90;;;;;;4986718;28;20309;-75
2023/06/18 00:40:21;;;;;;;9.23;8.53;;;16.90;99.90;;;;;;4986437;28;20337;-75
2023/06/18 00:42:52;;;;;;;8.87;8.27;;;16.90;99.90;;;;;;4986040;28;20637;-75
2023/06/18 00:45:20;;;;;;;8.83;8.23;;;16.90;99.90;;;;;;4985854;28;20216;-74
2023/06/18 00:47:49;;;;;;;9.00;8.33;;;16.90;99.90;;;;;;4986100;28;20242;-74
2023/06/18 00:50:17;;;;;;;9.40;8.50;;;16.80;99.90;;;;;;4986206;28;20233;-74
2023/06/18 00:52:47;;;;;;;9.37;8.70;;;16.70;99.90;;;;;;4985901;28;20560;-74
2023/06/18 00:55:16;;;;;;;9.17;8.57;;;16.60;99.90;;;;;;4986092;28;20848;-74
2023/06/18 00:57:43;;;;;;;9.73;8.90;;;16.60;99.90;;;;;;4986256;28;20264;-73
2023/06/18 01:00:13;;;;;;;9.13;8.40;;;16.60;99.90;;;;;;4986088;28;20206;-74
2023/06/18 01:02:49;;;;;;;9.57;8.77;;;16.60;99.90;;;;;;4986010;28;20203;-74
2023/06/18 01:05:16;;;;;;;9.30;8.43;;;16.60;99.90;;;;;;4986384;28;20237;-74
2023/06/18 01:07:47;;;;;;;10.17;9.37;;;16.60;99.90;;;;;;5003174;28;20267;-74
2023/06/18 01:10:15;;;;;;;9.50;8.73;;;16.60;99.90;;;;;;5006125;28;20189;-75
2023/06/18 01:12:45;;;;;;;9.40;8.73;;;16.60;99.90;;;;;;4998714;28;20228;-75
2023/06/18 01:15:12;;;;;;;10.40;9.27;;;16.70;99.90;;;;;;4989884;28;20200;-75
2023/06/18 01:17:47;;;;;;;10.00;9.20;;;16.60;99.90;;;;;;4989703;28;20237;-76
2023/06/18 01:20:16;;;;;;;10.00;9.03;;;16.60;99.90;;;;;;4989807;28;20252;-75
2023/06/18 01:22:48;;;;;;;9.23;8.57;;;16.60;99.90;;;;;;4989122;28;20703;-75
2023/06/18 01:25:17;;;;;;;10.37;9.37;;;16.60;99.90;;;;;;4990097;28;20194;-75
2023/06/18 01:27:46;;;;;;;9.70;8.97;;;16.60;99.90;;;;;;4989970;28;20238;-75
2023/06/18 01:30:15;;;;;;;9.73;8.83;;;16.60;99.90;;;;;;4989374;28;20214;-75
2023/06/18 01:32:43;;;;;;;10.63;9.60;;;16.50;99.90;;;;;;4989432;28;20277;-75
2023/06/18 01:35:14;;;;;;;11.63;10.53;;;16.50;99.90;;;;;;4989863;28;20206;-75
2023/06/18 01:37:48;;;;;;;10.97;10.07;;;16.50;99.90;;;;;;4989317;28;20199;-74
2023/06/18 01:40:29;;;;;;;10.77;9.80;;;16.40;99.90;;;;;;4989261;28;20741;-74
2023/06/18 01:43:05;;;;;;;11.03;10.23;;;16.40;99.90;;;;;;4978285;28;20194;-74
2023/06/18 01:45:39;;;;;;;10.83;9.60;;;16.30;99.90;;;;;;4989202;28;20198;-76
2023/06/18 01:48:09;;;;;;;10.37;9.53;;;16.20;99.90;;;;;;4989370;28;20225;-76
2023/06/18 01:50:38;;;;;;;11.03;10.17;;;16.30;99.90;;;;;;4989652;28;20202;-76
2023/06/18 01:53:07;;;;;;;10.53;9.73;;;16.30;99.90;;;;;;4988897;28;20264;-76
2023/06/18 01:55:37;;;;;;;10.47;9.77;;;16.30;99.90;;;;;;4989228;28;20677;-76
2023/06/18 01:58:05;;;;;;;11.10;10.13;;;16.40;99.90;;;;;;4989630;28;20214;-76
2023/06/18 02:00:32;;;;;;;10.70;9.90;;;16.40;99.90;;;;;;4989153;28;20747;-76
2023/06/18 02:02:59;;;;;;;11.37;10.43;;;16.40;99.90;;;;;;4989190;28;20217;-76
2023/06/18 02:05:28;;;;;;;10.97;10.13;;;16.30;99.90;;;;;;4989026;28;20616;-77
2023/06/18 02:07:55;;;;;;;10.07;9.37;;;16.30;99.90;;;;;;5007540;28;20260;-76
2023/06/18 02:10:21;;;;;;;10.60;9.70;;;16.30;99.90;;;;;;5008758;28;20213;-76
2023/06/18 02:12:48;;;;;;;10.07;9.17;;;16.30;99.90;;;;;;5001859;28;20724;-76
2023/06/18 02:15:15;;;;;;;10.07;9.37;;;16.30;99.90;;;;;;4989402;28;20210;-76
2023/06/18 02:17:45;;;;;;;9.57;8.87;;;16.30;99.90;;;;;;5002650;28;20755;-76
2023/06/18 02:20:12;;;;;;;9.70;9.00;;;16.30;99.90;;;;;;4992482;28;20224;-76
2023/06/18 02:22:40;;;;;;;9.33;8.63;;;16.20;99.90;;;;;;4988977;28;20293;-76
2023/06/18 02:25:08;;;;;;;9.30;8.33;;;16.20;99.90;;;;;;4988447;28;20221;-75
2023/06/18 02:27:35;;;;;;;9.17;8.57;;;16.20;99.90;;;;;;4988787;28;20293;-74
2023/06/18 02:30:02;;;;;;;9.47;8.67;;;16.10;99.90;;;;;;4988623;28;20213;-74
2023/06/18 02:32:31;;;;;;;8.90;8.27;;;16.10;99.90;;;;;;4988457;28;20198;-74
2023/06/18 02:34:58;;;;;;;7.97;7.37;;;15.90;99.90;;;;;;4988328;28;20210;-74
2023/06/18 02:37:27;;;;;;;8.77;8.07;;;16.00;99.90;;;;;;4996843;28;20206;-71
2023/06/18 02:39:56;;;;;;;8.83;8.13;;;16.00;99.90;;;;;;4988457;28;20218;-72
2023/06/18 02:42:23;;;;;;;8.23;7.70;;;16.00;99.90;;;;;;4988599;28;20301;-72
2023/06/18 02:44:50;;;;;;;8.80;8.20;;;16.00;99.90;;;;;;4988643;28;20221;-73
2023/06/18 02:47:16;;;;;;;8.20;7.70;;;16.00;99.90;;;;;;4988586;28;20301;-73
2023/06/18 02:49:43;;;;;;;7.90;7.37;;;16.00;99.90;;;;;;4988656;28;20269;-74
2023/06/18 02:52:10;;;;;;;8.40;7.80;;;16.00;99.90;;;;;;4987689;28;20281;-72
2023/06/18 02:54:38;;;;;;;7.87;7.37;;;16.10;99.90;;;;;;4988227;28;20199;-71
2023/06/18 02:57:06;;;;;;;8.27;7.67;;;16.10;99.90;;;;;;4988105;28;20214;-72
2023/06/18 02:59:33;;;;;;;8.60;8.00;;;16.10;99.90;;;;;;4988012;28;20868;-72
2023/06/18 03:02:00;;;;;;;8.73;8.10;;;16.10;99.90;;;;;;4987536;28;20226;-72
2023/06/18 03:04:27;;;;;;;8.93;8.33;;;16.10;99.90;;;;;;4988131;28;20757;-72
2023/06/18 03:06:58;;;;;;;8.67;8.03;;;16.10;99.90;;;;;;4998802;28;20307;-73
2023/06/18 03:09:25;;;;;;;9.10;8.23;;;16.10;99.90;;;;;;5008186;28;20316;-72
2023/06/18 03:11:52;;;;;;;9.00;8.23;;;16.10;99.90;;;;;;5001036;28;20285;-73
2023/06/18 03:14:22;;;;;;;9.07;8.23;;;16.10;99.90;;;;;;4987883;28;20740;-73
2023/06/18 03:16:49;;;;;;;8.93;8.07;;;16.10;99.90;;;;;;4988151;28;20221;-72
2023/06/18 03:19:16;;;;;;;8.50;8.00;;;16.10;99.90;;;;;;4988639;28;20225;-73
2023/06/18 03:21:42;;;;;;;9.60;8.70;;;16.10;99.90;;;;;;4988348;28;20304;-73
2023/06/18 03:24:10;;;;;;;9.93;9.23;;;16.10;99.90;;;;;;4987565;28;20298;-72
2023/06/18 03:26:37;;;;;;;9.83;9.13;;;16.10;99.90;;;;;;4987763;28;20710;-71
2023/06/18 03:29:04;;;;;;;9.60;8.97;;;16.10;99.90;;;;;;4987545;28;20466;-71
2023/06/18 03:31:33;;;;;;;10.10;9.37;;;16.20;99.90;;;;;;4987555;28;20285;-71
2023/06/18 03:34:01;;;;;;;10.50;9.70;;;16.10;99.90;;;;;;4995700;28;20576;-70
2023/06/18 03:36:28;;;;;;;10.07;9.27;;;16.20;99.90;;;;;;4995457;28;20301;-70
2023/06/18 03:38:56;;;;;;;10.73;9.83;;;16.20;99.90;;;;;;4986691;28;20683;-70
2023/06/18 03:41:23;;;;;;;11.10;10.30;;;16.20;99.90;;;;;;4987317;28;20350;-70
2023/06/18 03:43:49;;;;;;;11.27;10.37;;;16.20;99.90;;;;;;4987364;28;20401;-70
2023/06/18 03:46:16;;;;;;;11.23;10.33;;;16.10;99.90;;;;;;4986818;28;20210;-72
2023/06/18 03:48:45;;;;;;;12.23;11.17;;;16.20;99.90;;;;;;4987799;28;20321;-71
2023/06/18 03:51:12;;;;;;;12.03;11.03;;;16.20;99.90;;;;;;4987376;28;20248;-71
2023/06/18 03:53:38;;;;;;;11.50;10.67;;;16.20;99.90;;;;;;4986730;28;20244;-73
2023/06/18 03:56:06;;;;;;;12.83;11.80;;;16.20;99.90;;;;;;4987214;28;20309;-72
2023/06/18 03:58:33;;;;;;;12.17;11.13;;;16.30;99.90;;;;;;4987076;28;20210;-72
2023/06/18 04:01:00;;;;;;;11.80;10.87;;;16.20;99.90;;;;;;4986961;28;20221;-72
2023/06/18 04:03:27;;;;;;;12.40;11.47;;;16.30;99.90;;;;;;4986616;28;20257;-72
2023/06/18 04:05:55;;;;;;;11.83;10.83;;;16.30;99.90;;;;;;4988782;28;20733;-72
2023/06/18 04:08:22;;;;;;;11.00;10.13;;;16.30;99.90;;;;;;4997540;28;20312;-72
2023/06/18 04:10:49;;;;;;;11.07;10.17;;;16.30;99.90;;;;;;4987100;28;20301;-72
2023/06/18 04:13:17;;;;;;;10.93;10.13;;;16.30;99.90;;;;;;4987147;28;20305;-72
2023/06/18 04:15:44;;;;;;;12.27;11.27;;;16.30;99.90;;;;;;4986974;28;20269;-73
2023/06/18 04:18:12;;;;;;;12.80;11.87;;;16.30;99.90;;;;;;4987018;28;20244;-72
2023/06/18 04:20:38;;;;;;;12.10;10.97;;;16.30;99.90;;;;;;4987212;28;20273;-72
2023/06/18 04:23:07;;;;;;;11.73;10.83;;;16.40;99.90;;;;;;4986899;28;20289;-72
2023/06/18 04:25:34;;;;;;;11.50;10.47;;;16.40;99.90;;;;;;4986559;28;20220;-73
2023/06/18 04:28:01;;;;;;;11.43;10.50;;;16.40;99.90;;;;;;4986572;28;20344;-72
2023/06/18 04:30:28;;;;;;;11.83;10.73;;;16.50;99.90;;;;;;4996426;28;20217;-72
2023/06/18 04:32:55;;;;;;;12.77;11.80;;;16.50;99.90;;;;;;4986524;28;20297;-73
2023/06/18 04:35:21;;;;;;;12.73;11.73;;;16.50;99.90;;;;;;4987902;28;20214;-72
2023/06/18 04:37:48;;;;;;;13.60;12.40;;;16.50;99.90;;;;;;5006133;28;20209;-72
2023/06/18 04:40:18;;;;;;;13.13;12.13;;;16.60;99.90;;;;;;5006389;28;20308;-72
2023/06/18 04:42:46;;;;;;;13.57;12.57;;;16.60;99.90;;;;;;4988628;28;20213;-72
2023/06/18 04:45:13;;;;;;;14.33;13.23;;;16.70;99.90;;;;;;4986052;28;20241;-72
2023/06/18 04:47:40;;;;;;;13.20;12.00;;;16.70;99.90;;;;;;4985997;28;20301;-72
2023/06/18 04:50:08;;;;;;;12.47;11.47;;;16.80;99.90;;;;;;4985852;28;20237;-72
2023/06/18 04:52:35;;;;;;;12.60;11.47;;;16.80;99.90;;;;;;4985965;28;20300;-72
2023/06/18 04:55:03;;;;;;;11.80;10.90;;;16.90;99.90;;;;;;4986296;28;20215;-71
2023/06/18 04:57:31;;;;;;;12.27;11.17;;;16.90;99.90;;;;;;4985897;28;20206;-71
2023/06/18 04:59:58;;;;;;;11.57;10.57;;;16.90;99.90;;;;;;4986122;28;20257;-71
2023/06/18 05:02:25;;;;;;;11.90;11.10;;;17.00;99.90;;;;;;4985679;28;20333;-71
2023/06/18 05:04:52;;;;;;;12.87;11.93;;;17.00;99.90;;;;;;4987406;28;20214;-71
2023/06/18 05:07:19;;;;;;;13.17;12.17;;;17.00;99.90;;;;;;5002599;28;20229;-71
2023/06/18 05:09:46;;;;;;;13.13;12.13;;;17.00;99.90;;;;;;4986591;28;20353;-71
2023/06/18 05:12:13;;;;;;;12.20;11.20;;;17.10;99.90;;;;;;4985802;28;20648;-70
2023/06/18 05:14:41;;;;;;;12.70;11.60;;;17.10;99.90;;;;;;4986238;28;20218;-70
2023/06/18 05:17:08;;;;;;;11.37;10.47;;;17.10;99.90;;;;;;4985724;28;20728;-71
2023/06/18 05:19:35;;;;;;;11.57;10.77;;;17.10;99.90;;;;;;4986296;28;20582;-71
2023/06/18 05:22:02;;;;;;;11.07;10.27;;;17.10;99.90;;;;;;4986386;28;20293;-71
2023/06/18 05:24:28;;;;;;;11.07;10.37;;;17.20;99.90;;;;;;4985914;28;20284;-71
2023/06/18 05:26:55;;;;;;;10.20;9.50;;;17.20;99.90;;;;;;4986199;28;20305;-71
2023/06/18 05:29:22;;;;;;;10.67;9.23;;;17.20;99.90;;;;;;4985695;28;20712;-71
2023/06/18 05:31:50;;;;;;;8.77;8.10;;;17.30;99.90;;;;;;4986065;28;20289;-71
2023/06/18 05:34:17;;;;;;;8.40;7.80;;;17.30;99.90;;;;;;4985749;28;20855;-72
2023/06/18 05:36:44;;;;;;;8.63;8.00;;;17.30;99.90;;;;;;4985935;28;20234;-72
2023/06/18 05:39:11;;;;;;;8.37;7.67;;;17.30;99.90;;;;;;4986054;28;20301;-72
2023/06/18 05:41:38;;;;;;;7.47;7.07;;;17.40;99.90;;;;;;4985969;28;20216;-71
2023/06/18 05:44:05;;;;;;;8.50;7.80;;;17.40;99.90;;;;;;4985856;28;20293;-70
2023/06/18 05:46:32;;;;;;;7.33;6.83;;;17.40;99.90;;;;;;4983925;28;20232;-75
2023/06/18 05:49:00;;;;;;;7.63;7.03;;;17.50;99.90;;;;;;4984669;28;20317;-74
2023/06/18 05:51:27;;;;;;;8.50;7.73;;;17.50;99.90;;;;;;4985911;28;20206;-75
2023/06/18 05:53:54;;;;;;;8.73;8.03;;;17.50;99.90;;;;;;4985699;28;20238;-74
2023/06/18 05:56:21;;;;;;;7.90;7.20;;;17.50;99.90;;;;;;4985819;28;20264;-74
2023/06/18 05:58:48;;;;;;;6.93;6.50;;;17.50;99.90;;;;;;4985990;28;20206;-74
2023/06/18 06:01:15;;;;;;;7.03;6.53;;;17.60;99.90;;;;;;4987277;28;20313;-72
2023/06/18 06:03:42;;;;;;;9.87;9.10;;;17.60;99.90;;;;;;4989177;28;20716;-71
2023/06/18 06:06:10;;;;;;;9.00;8.40;;;17.60;99.90;;;;;;4987859;28;20744;-73
2023/06/18 06:08:37;;;;;;;9.63;8.93;;;17.70;99.90;;;;;;5009003;28;20525;-74
2023/06/18 06:11:05;;;;;;;9.20;8.50;;;17.70;99.90;;;;;;5009036;28;20212;-73
2023/06/18 06:13:31;;;;;;;8.33;7.83;;;17.70;99.90;;;;;;4995389;28;20735;-72
2023/06/18 06:15:58;;;;;;;8.20;7.70;;;17.70;99.90;;;;;;4988667;28;20248;-72
2023/06/18 06:18:25;;;;;;;7.60;7.10;;;17.70;99.90;;;;;;4988129;28;20288;-73
2023/06/18 06:20:52;;;;;;;8.43;7.50;;;17.70;99.90;;;;;;4988396;28;20206;-71
2023/06/18 06:23:21;;;;;;;8.17;7.57;;;17.80;99.90;;;;;;4988717;28;20627;-71
2023/06/18 06:25:47;;;;;;;8.00;7.50;;;17.80;99.90;;;;;;4976938;28;20892;-71
2023/06/18 06:28:14;;;;;;;8.20;7.57;;;17.80;99.90;;;;;;4979152;28;20317;-72
2023/06/18 06:30:41;;;;;;;7.00;6.50;;;17.80;99.90;;;;;;4987916;28;20230;-72
2023/06/18 06:33:08;;;;;;;8.17;7.57;;;17.80;99.90;;;;;;4988957;28;20244;-73
2023/06/18 06:35:36;;;;;;;8.10;7.30;;;17.80;99.90;;;;;;4989060;28;20292;-73
2023/06/18 06:38:03;;;;;;;7.03;6.53;;;17.90;99.90;;;;;;5000697;28;20240;-72
2023/06/18 06:40:31;;;;;;;6.43;6.07;;;17.90;99.90;;;;;;4988827;28;20210;-73
2023/06/18 06:42:58;;;;;;;6.80;6.20;;;17.90;99.90;;;;;;4988683;28;20683;-73
2023/06/18 06:45:27;;;;;;;7.60;7.13;;;17.90;99.90;;;;;;4988633;28;20632;-73
2023/06/18 06:47:54;;;;;;;7.27;6.67;;;18.00;99.90;;;;;;4989063;28;20292;-73
2023/06/18 06:50:21;;;;;;;6.97;6.57;;;18.00;99.90;;;;;;4988506;28;20336;-72
2023/06/18 06:52:48;;;;;;;7.80;7.27;;;18.00;99.90;;;;;;4988377;28;20279;-72
2023/06/18 06:55:15;;;;;;;7.40;6.90;;;18.00;99.90;;;;;;4987817;28;20292;-73
2023/06/18 06:57:43;;;;;;;7.63;7.10;;;18.10;99.90;;;;;;4987551;28;20301;-74
2023/06/18 07:00:11;;;;;;;7.67;7.07;;;18.10;99.90;;;;;;4987929;28;20226;-74
2023/06/18 07:02:38;;;;;;;7.53;7.03;;;18.10;99.90;;;;;;4988041;28;20293;-75
2023/06/18 07:05:07;;;;;;;7.20;6.70;;;18.20;99.90;;;;;;4988671;28;20252;-75
2023/06/18 07:07:35;;;;;;;7.83;7.27;;;18.20;99.90;;;;;;4988146;28;20632;-74
2023/06/18 07:10:02;;;;;;;7.83;7.23;;;18.20;99.90;;;;;;4988363;28;20324;-75
2023/06/18 07:12:29;;;;;;;7.80;7.10;;;18.30;99.90;;;;;;4988195;28;20269;-74
2023/06/18 07:14:57;;;;;;;7.87;7.37;;;18.30;99.90;;;;;;4988392;28;20582;-75
2023/06/18 07:17:24;;;;;;;7.27;6.67;;;18.30;99.90;;;;;;4988065;28;20309;-75
2023/06/18 07:19:52;;;;;;;7.70;7.00;;;18.30;99.90;;;;;;4987988;28;20568;-75
2023/06/18 07:22:19;;;;;;;7.07;6.67;;;18.40;99.90;;;;;;4987842;28;20254;-75
2023/06/18 07:24:46;;;;;;;7.93;7.33;;;18.40;99.90;;;;;;4987727;28;20486;-74
2023/06/18 07:27:14;;;;;;;8.17;7.00;;;18.40;99.90;;;;;;4987968;28;20502;-74
2023/06/18 07:29:41;;;;;;;7.37;6.80;;;18.40;99.90;;;;;;4987957;28;20316;-73
2023/06/18 07:32:09;;;;;;;7.07;6.50;;;18.50;99.90;;;;;;4987196;28;20210;-74
2023/06/18 07:34:36;;;;;;;7.47;6.87;;;18.50;99.90;;;;;;4987703;28;20577;-73
2023/06/18 07:37:04;;;;;;;7.23;6.83;;;18.50;99.90;;;;;;4987284;28;20230;-74
2023/06/18 07:39:31;;;;;;;7.47;6.90;;;18.50;99.90;;;;;;4986165;28;20234;-74
2023/06/18 07:41:57;;;;;;;9.53;6.97;;;18.60;99.90;;;;;;4986946;28;20238;-73
2023/06/18 07:44:25;;;;;;;10.53;6.83;;;18.60;99.90;;;;;;4987454;28;20242;-74
2023/06/18 07:46:52;;;;;;;6.60;6.20;;;18.60;99.90;;;;;;4987643;28;20214;-73
2023/06/18 07:49:21;;;;;;;6.87;6.37;;;18.60;99.90;;;;;;4985408;28;22220;-73
2023/06/18 07:51:48;;;;;;;7.67;7.13;;;18.60;99.90;;;;;;4985578;28;20652;-73
2023/06/18 07:54:15;;;;;;;6.70;6.23;;;18.70;99.90;;;;;;4982716;28;20245;-73
2023/06/18 07:56:42;;;;;;;6.33;5.93;;;18.70;99.90;;;;;;4985441;28;20306;-73
2023/06/18 07:59:09;;;;;;;7.23;6.73;;;18.70;99.90;;;;;;4985616;28;20701;-73
2023/06/18 08:01:36;;;;;;;7.50;6.80;;;18.80;99.90;;;;;;4985491;28;20220;-73
2023/06/18 08:04:03;;;;;;;6.77;6.13;;;18.80;99.90;;;;;;4985831;28;20217;-73
2023/06/18 08:06:31;;;;;;;6.20;5.67;;;18.80;99.90;;;;;;4985657;28;20210;-74
2023/06/18 08:08:58;;;;;;;6.97;6.57;;;18.80;99.90;;;;;;4985627;28;20868;-73
2023/06/18 08:11:25;;;;;;;6.63;6.23;;;18.90;99.90;;;;;;4985269;28;20234;-73
2023/06/18 08:13:52;;;;;;;7.90;7.30;;;19.00;99.90;;;;;;4985133;28;20256;-73
2023/06/18 08:16:19;;;;;;;6.80;6.30;;;19.00;99.90;;;;;;4999168;28;20241;-73
2023/06/18 08:18:46;;;;;;;7.00;6.40;;;19.10;99.90;;;;;;4984819;28;20683;-73
2023/06/18 08:21:13;;;;;;;7.53;6.80;;;19.10;99.90;;;;;;4984903;28;20321;-72
2023/06/18 08:23:41;;;;;;;6.87;6.37;;;19.20;99.90;;;;;;4984080;28;20685;-72
2023/06/18 08:26:08;;;;;;;7.47;6.77;;;19.20;99.90;;;;;;4985562;28;20253;-71
2023/06/18 08:28:35;;;;;;;6.83;6.33;;;19.20;99.90;;;;;;4985428;28;20225;-72
2023/06/18 08:31:02;;;;;;;7.43;6.93;;;19.20;99.90;;;;;;4985108;28;20253;-72
2023/06/18 08:33:29;;;;;;;6.97;6.27;;;19.30;99.90;;;;;;4985540;28;20214;-72
2023/06/18 08:35:56;;;;;;;7.00;6.60;;;19.30;99.90;;;;;;4985387;28;20276;-72
2023/06/18 08:38:23;;;;;;;7.43;6.70;;;19.50;99.90;;;;;;4984835;28;20316;-72
2023/06/18 08:40:54;;;;;;;6.47;6.07;;;19.50;99.90;;;;;;4985046;28;20213;-72
2023/06/18 08:43:26;;;;;;;6.07;5.67;;;19.60;99.90;;;;;;4984686;28;20198;-73
2023/06/18 08:45:54;;;;;;;6.07;5.67;;;19.70;99.90;;;;;;4984995;28;20205;-73
2023/06/18 08:48:25;;;;;;;7.07;6.37;;;19.70;99.90;;;;;;4985023;28;20929;-72
2023/06/18 08:50:59;;;;;;;6.60;6.10;;;19.80;99.90;;;;;;4993774;28;20316;-72
2023/06/18 08:53:33;;;;;;;6.77;6.13;;;20.10;99.90;;;;;;4991881;28;20250;-72
2023/06/18 08:56:02;;;;;;;6.67;6.17;;;20.30;99.90;;;;;;4984550;28;20222;-72
2023/06/18 08:58:31;;;;;;;6.93;6.33;;;20.40;99.90;;;;;;4984473;28;20232;-72
2023/06/18 09:00:58;;;;;;;6.73;6.07;;;20.30;99.90;;;;;;4984409;28;20218;-72
2023/06/18 09:03:25;;;;;;;6.57;6.07;;;20.40;99.90;;;;;;4984394;28;20210;-72
2023/06/18 09:05:53;;;;;;;6.00;5.50;;;20.30;99.90;;;;;;4984802;28;20637;-72
2023/06/18 09:08:21;;;;;;;5.33;5.03;;;20.50;99.90;;;;;;4984787;28;20241;-72
2023/06/18 09:10:48;;;;;;;5.03;4.60;;;20.60;99.90;;;;;;4984008;28;20245;-72
2023/06/18 09:13:16;;;;;;;5.20;4.90;;;20.60;99.90;;;;;;4984383;28;20253;-72
2023/06/18 09:15:43;;;;;;;5.27;4.93;;;20.70;99.90;;;;;;4984933;28;20209;-72
2023/06/18 09:18:10;;;;;;;5.07;4.77;;;20.60;99.90;;;;;;4985003;28;20285;-72
2023/06/18 09:20:38;;;;;;;6.00;5.60;;;20.70;99.90;;;;;;4987968;28;20292;-72
2023/06/18 09:23:10;;;;;;;6.37;5.30;;;20.80;99.90;;;;;;4985636;28;20492;-72
2023/06/18 09:25:37;;;;;;;4.30;4.00;;;20.90;99.90;;;;;;4984232;28;20217;-72
2023/06/18 09:28:05;;;;;;;4.70;4.30;;;21.30;99.90;;;;;;4984569;28;20217;-73
2023/06/18 09:30:33;;;;;;;5.17;4.53;;;21.30;99.90;;;;;;4984182;28;20662;-72
2023/06/18 09:33:00;;;;;;;4.97;4.68;;;21.20;99.90;;;;;;4984271;28;20811;-72
2023/06/18 09:35:28;;;;;;;4.68;4.38;;;21.30;99.90;;;;;;4986817;28;20202;-72
2023/06/18 09:37:55;;;;;;;4.70;4.37;;;21.30;99.90;;;;;;4987558;28;20724;-72
2023/06/18 09:40:25;;;;;;;5.03;4.63;;;21.20;99.90;;;;;;4987736;28;20309;-73
2023/06/18 09:42:52;;;;;;;4.90;4.50;;;21.30;99.90;;;;;;4988019;28;20198;-72
2023/06/18 09:45:20;;;;;;;5.20;4.88;;;21.30;99.90;;;;;;4987773;28;20304;-72
2023/06/18 09:47:49;;;;;;;6.77;5.13;;;21.40;99.90;;;;;;5002474;28;20299;-72
2023/06/18 09:50:17;;;;;;;4.70;4.50;;;21.40;99.90;;;;;;4990650;28;20238;-72
2023/06/18 09:52:45;;;;;;;4.55;4.30;;;21.50;99.90;;;;;;4988211;28;20353;-73
2023/06/18 09:55:29;;;;;;;4.47;4.28;;;21.50;99.90;;;;;;4987698;28;20756;-73
2023/06/18 09:57:57;;;;;;;4.57;4.28;;;21.60;99.90;;;;;;4988060;28;20202;-73
2023/06/18 10:00:25;;;;;;;4.33;4.03;;;21.80;99.90;;;;;;4987397;28;20225;-73
2023/06/18 10:02:54;;;;;;;3.88;3.58;;;21.90;99.90;;;;;;4987792;28;20210;-73
2023/06/18 10:05:21;;;;;;;4.07;3.78;;;22.10;99.90;;;;;;4987687;28;20264;-73
2023/06/18 10:07:49;;;;;;;4.33;3.60;;;22.20;99.90;;;;;;4986812;28;20653;-73
2023/06/18 10:10:17;;;;;;;4.27;3.97;;;22.20;99.90;;;;;;4986920;28;20236;-73
2023/06/18 10:12:47;;;;;;;4.38;3.97;;;22.20;99.90;;;;;;4987167;28;20947;-73
2023/06/18 10:15:14;;;;;;;4.50;4.15;;;22.40;99.90;;;;;;4987155;28;20764;-73
2023/06/18 10:17:45;;;;;;;4.40;4.20;;;22.60;99.90;;;;;;4986711;28;20754;-73
2023/06/18 10:20:15;;;;;;;4.75;4.40;;;22.80;99.90;;;;;;4987043;28;20211;-70
2023/06/18 10:22:45;;;;;;;4.65;4.35;;;22.90;99.90;;;;;;4987564;28;20293;-70
2023/06/18 10:25:12;;;;;;;5.10;4.70;;;23.20;99.90;;;;;;4987211;28;20210;-70
2023/06/18 10:27:40;;;;;;;4.20;3.90;;;23.30;99.90;;;;;;4987466;28;20214;-72
2023/06/18 10:30:08;;;;;;;4.95;4.25;;;23.20;99.90;;;;;;4987269;28;20202;-71
2023/06/18 10:32:38;;;;;;;4.30;4.00;;;23.10;99.90;;;;;;4985743;28;20210;-73
2023/06/18 10:35:08;;;;;;;4.53;4.22;;;23.10;99.90;;;;;;4990709;28;20220;-72
2023/06/18 10:37:37;;;;;;;5.00;4.60;;;23.10;99.90;;;;;;4987528;28;20233;-72
2023/06/18 10:40:05;;;;;;;4.63;3.90;;;23.20;99.90;;;;;;4987846;28;20210;-72
2023/06/18 10:42:33;;;;;;;3.75;3.53;;;23.30;99.90;;;;;;4987274;28;20211;-72
2023/06/18 10:45:09;;;;;;;4.65;4.35;;;23.40;99.90;;;;;;4986943;28;20220;-72
2023/06/18 10:47:36;;;;;;;4.40;4.20;;;23.40;99.90;;;;;;4986507;28;20308;-72
2023/06/18 10:50:11;;;;;;;3.90;3.70;;;23.50;99.90;;;;;;4986601;28;20205;-72
2023/06/18 10:52:41;;;;;;;5.82;3.90;;;23.50;99.90;;;;;;4986971;28;20621;-71
2023/06/18 10:55:10;;;;;;;4.43;4.07;;;23.50;99.90;;;;;;4987261;28;20241;-72
2023/06/18 10:57:38;;;;;;;9.57;8.82;;;23.30;99.90;;;;;;4986964;28;20293;-73
2023/06/18 11:00:25;;;;;;;4.50;4.20;;;23.20;99.90;;;;;;4986549;28;20296;-72
2023/06/18 11:02:59;;;;;;;4.28;3.92;;;23.10;99.90;;;;;;4986586;28;20731;-72
2023/06/18 11:05:46;;;;;;;4.50;4.18;;;23.10;99.90;;;;;;4979001;28;20202;-73
2023/06/18 11:08:16;;;;;;;4.13;3.83;;;23.00;99.90;;;;;;4985541;28;20202;-72
2023/06/18 11:10:45;;;;;;;4.57;4.15;;;23.20;99.90;;;;;;4986829;28;20230;-73
2023/06/18 11:13:12;;;;;;;6.30;4.65;;;23.40;99.90;;;;;;4986954;28;20210;-73
2023/06/18 11:15:54;;;;;;;4.53;4.13;;;23.60;99.90;;;;;;4986843;28;20379;-73
2023/06/18 11:18:22;;;;;;;4.53;4.22;;;23.80;99.90;;;;;;4987169;28;20209;-73
2023/06/18 11:20:49;;;;;;;3.90;3.70;;;24.30;99.90;;;;;;4976587;28;20576;-72
2023/06/18 11:23:18;;;;;;;3.85;3.65;;;24.50;99.90;;;;;;4986684;28;20224;-72
2023/06/18 11:25:46;;;;;;;4.25;3.85;;;24.70;99.90;;;;;;4987286;28;20329;-72
2023/06/18 11:28:13;;;;;;;4.32;4.13;;;24.90;99.90;;;;;;4987041;28;20233;-75
2023/06/18 11:30:47;;;;;;;4.22;3.78;;;24.90;99.90;;;;;;4987304;28;20234;-75
2023/06/18 11:33:14;;;;;;;4.03;3.83;;;24.90;99.90;;;;;;4987741;28;20644;-74
2023/06/18 11:35:41;;;;;;;4.40;4.10;;;24.90;99.90;;;;;;4987924;28;20617;-74
2023/06/18 11:38:08;;;;;;;4.68;4.25;;;25.00;99.90;;;;;;4987551;28;20641;-75
2023/06/18 11:40:36;;;;;;;4.10;3.70;;;24.90;99.90;;;;;;4985700;28;20591;-74
2023/06/18 11:43:03;;;;;;;4.20;4.00;;;24.90;99.90;;;;;;4985929;28;20246;-75
2023/06/18 11:45:30;;;;;;;3.75;3.55;;;25.10;99.90;;;;;;4986058;28;20302;-74
2023/06/18 11:47:57;;;;;;;4.22;3.80;;;25.20;99.90;;;;;;4985942;28;20217;-74
2023/06/18 11:50:27;;;;;;;4.38;4.18;;;25.40;99.90;;;;;;4985778;28;20221;-75
2023/06/18 11:52:54;;;;;;;4.43;4.07;;;25.60;99.90;;;;;;4985478;28;20237;-74
2023/06/18 11:55:21;;;;;;;4.00;3.80;;;25.70;99.90;;;;;;4985889;28;20309;-74
2023/06/18 11:57:50;;;;;;;4.28;4.07;;;26.00;99.90;;;;;;4984633;28;20293;-75
2023/06/18 12:00:17;;;;;;;4.50;4.10;;;26.10;99.90;;;;;;4992819;28;20296;-75
2023/06/18 12:02:44;;;;;;;4.78;4.43;;;26.10;99.90;;;;;;4985307;28;20256;-74
2023/06/18 12:05:11;;;;;;;4.20;4.00;;;25.90;99.80;;;;;;4985203;28;20434;-74
2023/06/18 12:07:41;;;;;;;4.50;4.20;;;25.70;99.20;;;;;;4993257;28;20221;-74
2023/06/18 12:10:10;;;;;;;4.30;4.00;;;25.40;99.90;;;;;;4985893;28;20202;-74
2023/06/18 12:12:44;;;;;;;4.30;3.97;;;25.30;99.90;;;;;;4985641;28;20242;-74
2023/06/18 12:15:19;;;;;;;4.28;3.97;;;25.20;99.90;;;;;;4973671;28;20209;-74
2023/06/18 12:17:57;;;;;;;7.20;4.20;;;25.10;99.90;;;;;;4985718;28;20201;-75
2023/06/18 12:20:26;;;;;;;4.40;4.10;;;25.40;99.70;;;;;;4984847;28;20775;-75
2023/06/18 12:22:53;;;;;;;4.00;3.80;;;25.50;99.80;;;;;;4985135;28;20241;-75
2023/06/18 12:25:23;;;;;;;5.20;4.30;;;25.70;99.90;;;;;;4985065;28;20210;-74
2023/06/18 12:27:51;;;;;;;4.40;4.15;;;26.00;99.90;;;;;;4985050;28;20269;-75
2023/06/18 12:30:27;;;;;;;4.18;3.97;;;26.20;99.50;;;;;;4984925;28;20210;-75
2023/06/18 12:33:02;;;;;;;4.15;3.95;;;26.70;97.90;;;;;;4970505;28;20217;-75
2023/06/18 12:35:30;;;;;;;3.95;3.75;;;26.90;97.60;;;;;;4988386;28;20299;-75
2023/06/18 12:38:01;;;;;;;4.32;4.05;;;27.10;98.20;;;;;;4994979;28;20218;-75
2023/06/18 12:40:28;;;;;;;4.35;4.15;;;27.30;98.70;;;;;;4984625;28;20230;-75
2023/06/18 12:42:55;;;;;;;4.28;4.07;;;27.40;97.40;;;;;;4984519;28;20210;-75
2023/06/18 12:45:28;;;;;;;4.22;3.80;;;27.60;97.00;;;;;;4984353;28;20241;-75
2023/06/18 12:47:55;;;;;;;5.07;4.32;;;27.60;95.60;;;;;;4984708;28;20206;-74